Time;durP1;ratioP1;P1;durP2;ratioP2;P2;SDS_P1;SDS_P2;PMS_P1;PMS_P2;Temp;Humidity;BMP_temperature;BMP_pressure;BME280_temperature;BME280_humidity;BME280_pressure;Samples;Min_cycle;Max_cycle;Signal;HPM_P1;HPM_P2
2022/01/15 00:01:20;;;;;;;13.47;4.07;;;;;;;11.41;nan;102398.69;4869103;29;20513;-88
2022/01/15 00:03:48;;;;;;;12.27;3.73;;;;;;;11.36;nan;102397.44;4865363;29;20518;-88
2022/01/15 00:06:16;;;;;;;6.00;2.80;;;;;;;11.35;nan;102398.47;4882074;29;20443;-88
2022/01/15 00:08:44;;;;;;;14.83;3.50;;;;;;;11.37;nan;102407.38;4879411;29;20454;-88
2022/01/15 00:11:13;;;;;;;7.10;3.20;;;;;;;11.34;nan;102408.56;4881948;29;20455;-88
2022/01/15 00:13:43;;;;;;;15.43;3.83;;;;;;;11.24;nan;102391.34;4903736;29;20955;-88
2022/01/15 00:16:26;;;;;;;5.50;2.53;;;;;;;11.27;nan;102401.13;4880250;29;21067;-88
2022/01/15 00:19:09;;;;;;;11.83;3.47;;;;;;;11.21;nan;102390.81;4881072;29;20510;-87
2022/01/15 00:21:37;;;;;;;11.43;4.20;;;;;;;11.22;nan;102400.72;4874436;29;20465;-89
2022/01/15 00:24:06;;;;;;;11.00;3.40;;;;;;;11.21;nan;102407.22;4868384;29;20464;-88
2022/01/15 00:26:34;;;;;;;8.47;3.10;;;;;;;11.20;nan;102410.97;4864571;29;20462;-89
2022/01/15 00:29:03;;;;;;;12.63;3.00;;;;;;;11.14;nan;102400.69;4850645;29;20459;-88
2022/01/15 00:31:34;;;;;;;10.07;3.53;;;;;;;11.17;nan;102412.16;4885558;29;20458;-86
2022/01/15 00:34:02;;;;;;;13.60;3.87;;;;;;;11.13;nan;102409.91;4883814;29;20462;-86
2022/01/15 00:36:30;;;;;;;8.87;3.50;;;;;;;11.14;nan;102406.16;4913502;29;20858;-87
2022/01/15 00:38:58;;;;;;;12.87;3.80;;;;;;;11.14;nan;102406.16;4883511;29;20805;-87
2022/01/15 00:41:27;;;;;;;11.17;3.50;;;;;;;11.11;nan;102401.00;4879985;29;20485;-87
2022/01/15 00:43:54;;;;;;;12.10;3.00;;;;;;;11.13;nan;102405.28;4864840;29;20462;-87
2022/01/15 00:46:22;;;;;;;13.73;3.80;;;;;;;11.08;nan;102394.81;4880866;29;20958;-87
2022/01/15 00:48:50;;;;;;;9.60;3.10;;;;;;;11.06;nan;102383.16;4864245;29;20470;-87
2022/01/15 00:51:18;;;;;;;8.83;3.40;;;;;;;11.01;nan;102380.03;4885338;29;20466;-87
2022/01/15 00:53:46;;;;;;;10.80;3.80;;;;;;;11.05;nan;102384.16;4898630;29;20949;-87
2022/01/15 00:56:14;;;;;;;11.70;2.60;;;;;;;11.04;nan;102379.72;4898702;29;20482;-87
2022/01/15 00:58:42;;;;;;;9.23;3.03;;;;;;;11.08;nan;102378.38;4898148;29;20976;-88
2022/01/15 01:01:11;;;;;;;11.43;3.37;;;;;;;11.09;nan;102376.50;4897470;29;20980;-88
2022/01/15 01:03:39;;;;;;;9.83;2.87;;;;;;;11.07;nan;102367.59;4897961;29;20462;-89
2022/01/15 01:10:09;;;;;;;10.17;3.33;;;;;;;11.03;nan;102350.63;4807275;29;20435;-96
2022/01/15 09:37:47;;;;;;;13.90;2.47;;;;;;;12.05;nan;102435.81;4922825;29;20449;-93
2022/01/15 10:15:09;;;;;;;5.80;2.47;;;;;;;13.38;nan;102468.03;4862597;29;20407;-93
2022/01/15 11:15:12;;;;;;;20.03;4.80;;;;;;;14.41;nan;102474.69;4903193;29;20433;-95
2022/01/15 11:17:45;;;;;;;13.50;3.77;;;;;;;14.35;nan;102464.34;4886725;29;20489;-87
2022/01/15 11:20:17;;;;;;;11.13;3.73;;;;;;;14.47;nan;102476.69;4871140;29;20457;-89
2022/01/15 11:22:45;;;;;;;15.63;2.77;;;;;;;14.48;nan;102465.53;4880594;29;20446;-89
2022/01/15 11:25:19;;;;;;;11.77;3.97;;;;;;;14.60;nan;102455.00;4859007;29;20450;-90
2022/01/15 11:27:50;;;;;;;11.43;3.53;;;;;;;14.82;nan;102478.97;4885777;29;20462;-88
2022/01/15 11:30:19;;;;;;;9.07;4.10;;;;;;;14.97;nan;102459.81;4869794;29;21016;-88
2022/01/15 12:38:30;;;;;;;14.30;3.00;;;;;;;16.65;nan;102367.56;4854328;29;20584;-87
2022/01/15 13:31:06;;;;;;;9.00;2.40;;;;;;;17.97;nan;102289.44;4899551;29;20536;-86
2022/01/15 13:33:38;;;;;;;10.13;2.70;;;;;;;18.00;nan;102299.25;4864903;29;20481;-85
2022/01/15 13:36:07;;;;;;;10.03;3.10;;;;;;;17.99;nan;102292.84;4889618;29;20863;-87
2022/01/15 13:38:59;;;;;;;13.17;2.70;;;;;;;18.09;nan;102292.50;4873018;29;20465;-91
2022/01/15 13:41:37;;;;;;;7.57;2.40;;;;;;;18.12;nan;102300.34;4899421;29;20458;-93
2022/01/15 13:47:48;;;;;;;10.70;2.70;;;;;;;17.98;nan;102282.00;4900422;29;20428;-94
2022/01/15 13:53:46;;;;;;;10.20;3.10;;;;;;;18.10;nan;102272.88;4886080;29;20822;-92
2022/01/15 13:56:30;;;;;;;20.33;2.83;;;;;;;18.20;nan;102278.06;4868223;29;20496;-93
2022/01/15 13:59:01;;;;;;;7.73;2.70;;;;;;;18.24;nan;102280.22;4868907;29;20515;-86
2022/01/15 14:01:36;;;;;;;8.10;2.53;;;;;;;18.27;nan;102273.41;4900755;29;21049;-92
2022/01/15 14:04:33;;;;;;;4.90;2.23;;;;;;;18.36;nan;102279.59;4809158;29;20459;-90
2022/01/15 14:07:17;;;;;;;9.73;3.10;;;;;;;18.27;nan;102267.88;4809235;29;20469;-93
2022/01/15 14:09:51;;;;;;;10.63;3.03;;;;;;;18.28;nan;102269.56;4838673;29;20458;-87
2022/01/15 14:12:22;;;;;;;9.30;2.80;;;;;;;18.27;nan;102277.03;4804348;29;20552;-92
2022/01/15 14:14:50;;;;;;;14.10;3.43;;;;;;;18.30;nan;102272.97;4808659;29;20484;-88
2022/01/15 14:17:21;;;;;;;14.00;3.17;;;;;;;18.34;nan;102259.56;4806548;29;20489;-83
2022/01/15 14:22:43;;;;;;;12.97;3.17;;;;;;;18.48;nan;102264.94;4854039;29;20457;-82
2022/01/15 14:25:14;;;;;;;10.27;2.70;;;;;;;18.50;nan;102265.56;4883140;29;20461;-83
2022/01/15 14:28:04;;;;;;;14.37;3.10;;;;;;;18.54;nan;102253.03;4899821;29;20452;-83
2022/01/15 14:30:32;;;;;;;12.07;3.10;;;;;;;18.57;nan;102252.63;4901780;29;20477;-82
2022/01/15 14:33:00;;;;;;;8.27;3.47;;;;;;;18.51;nan;102242.38;4881923;29;20458;-83
2022/01/15 14:35:29;;;;;;;14.37;3.13;;;;;;;18.56;nan;102242.59;4850763;29;20821;-82
2022/01/15 14:37:58;;;;;;;10.93;3.10;;;;;;;18.55;nan;102248.34;4867578;29;20489;-83
2022/01/15 14:40:26;;;;;;;13.53;2.83;;;;;;;18.53;nan;102234.72;4900006;29;20944;-84
2022/01/15 14:42:56;;;;;;;9.50;3.10;;;;;;;18.58;nan;102243.25;4866598;29;20476;-83
2022/01/15 14:45:25;;;;;;;10.63;2.93;;;;;;;18.57;nan;102229.59;4887479;29;20464;-83
2022/01/15 14:47:57;;;;;;;7.10;2.57;;;;;;;18.56;nan;102231.53;4867505;29;20457;-83
2022/01/15 14:50:26;;;;;;;7.87;2.83;;;;;;;18.47;nan;102221.69;4876258;29;20461;-83
2022/01/15 14:52:54;;;;;;;11.60;2.70;;;;;;;18.44;nan;102219.38;4880842;29;20457;-82
2022/01/15 14:55:23;;;;;;;12.53;2.97;;;;;;;18.29;nan;102226.97;4875831;29;20818;-83
2022/01/15 14:57:51;;;;;;;9.03;3.10;;;;;;;18.32;nan;102234.88;4898303;29;20466;-87
2022/01/15 15:00:19;;;;;;;15.10;3.13;;;;;;;18.32;nan;102231.25;4881819;29;20454;-84
2022/01/15 15:02:52;;;;;;;10.43;3.63;;;;;;;18.35;nan;102241.91;4896454;29;20961;-83
2022/01/15 15:05:20;;;;;;;9.07;2.10;;;;;;;18.35;nan;102236.38;4920831;29;20816;-83
2022/01/15 15:07:48;;;;;;;12.47;2.93;;;;;;;18.34;nan;102224.44;4903281;29;20503;-83
2022/01/15 15:10:16;;;;;;;11.23;2.97;;;;;;;18.29;nan;102236.13;4918628;29;20460;-83
2022/01/15 15:12:57;;;;;;;17.83;2.90;;;;;;;18.34;nan;102229.97;4935593;29;20448;-83
2022/01/15 15:15:25;;;;;;;18.63;3.67;;;;;;;18.38;nan;102225.72;4892671;29;20457;-83
2022/01/15 15:17:53;;;;;;;14.10;2.93;;;;;;;18.41;nan;102222.56;4808915;29;20473;-83
2022/01/15 15:20:21;;;;;;;10.80;2.97;;;;;;;18.40;nan;102223.59;4806678;29;20462;-83
2022/01/15 15:22:48;;;;;;;8.03;2.90;;;;;;;18.28;nan;102214.19;4806785;29;20457;-83
2022/01/15 15:25:17;;;;;;;20.53;3.20;;;;;;;18.32;nan;102231.25;4832856;29;20468;-82
2022/01/15 15:27:45;;;;;;;8.00;2.43;;;;;;;18.20;nan;102231.00;4810061;29;20448;-83
2022/01/15 15:30:13;;;;;;;21.00;3.80;;;;;;;18.16;nan;102232.47;4806293;29;20481;-81
2022/01/15 15:32:44;;;;;;;13.17;3.47;;;;;;;18.15;nan;102233.53;4821617;29;20461;-80
2022/01/15 15:35:12;;;;;;;31.10;6.00;;;;;;;18.16;nan;102232.47;4833451;29;20456;-81
2022/01/15 15:37:40;;;;;;;18.77;3.67;;;;;;;18.17;nan;102234.19;4866010;29;20485;-84
2022/01/15 15:40:09;;;;;;;14.97;3.57;;;;;;;18.14;nan;102235.44;4897350;29;20458;-83
2022/01/15 15:42:39;;;;;;;13.40;3.07;;;;;;;18.15;nan;102236.28;4880591;29;20458;-84
2022/01/15 15:45:07;;;;;;;7.03;3.20;;;;;;;18.16;nan;102238.88;4885440;29;20461;-84
2022/01/15 15:47:36;;;;;;;6.87;2.47;;;;;;;18.11;nan;102232.22;4881691;29;21016;-83
2022/01/15 15:50:04;;;;;;;11.03;3.00;;;;;;;18.03;nan;102232.44;4872871;29;20965;-84
2022/01/15 15:52:31;;;;;;;12.17;3.13;;;;;;;17.99;nan;102239.44;4869422;29;20461;-83
2022/01/15 15:54:59;;;;;;;9.07;2.93;;;;;;;17.94;nan;102240.03;4869056;29;20454;-82
2022/01/15 15:57:27;;;;;;;10.70;3.47;;;;;;;17.85;nan;102238.53;4884148;29;20477;-83
2022/01/15 15:59:55;;;;;;;9.60;3.03;;;;;;;17.83;nan;102241.50;4895006;29;20979;-82
2022/01/15 16:02:23;;;;;;;9.23;3.10;;;;;;;17.78;nan;102238.47;4901477;29;20452;-84
2022/01/15 16:04:51;;;;;;;7.80;2.80;;;;;;;17.70;nan;102232.28;4902209;29;20477;-83
2022/01/15 16:07:24;;;;;;;9.23;2.87;;;;;;;17.68;nan;102246.31;4891959;29;20805;-83
2022/01/15 16:09:53;;;;;;;5.37;2.47;;;;;;;17.51;nan;102231.09;4884602;29;20526;-83
2022/01/15 16:12:21;;;;;;;13.17;3.20;;;;;;;17.45;nan;102237.41;4900526;29;20480;-82
2022/01/15 16:14:51;;;;;;;8.23;3.00;;;;;;;17.37;nan;102234.78;4886304;29;20464;-83
2022/01/15 16:17:19;;;;;;;12.30;2.80;;;;;;;17.38;nan;102244.78;4872478;29;20500;-83
2022/01/15 16:19:48;;;;;;;9.93;3.10;;;;;;;17.30;nan;102237.53;4872365;29;20453;-83
2022/01/15 16:22:16;;;;;;;8.03;2.53;;;;;;;17.22;nan;102235.75;4891751;29;20453;-83
2022/01/15 16:24:45;;;;;;;14.00;3.10;;;;;;;17.17;nan;102231.88;4869241;29;20458;-83
2022/01/15 16:27:13;;;;;;;8.23;2.90;;;;;;;17.12;nan;102235.28;4902439;29;20493;-82
2022/01/15 16:29:42;;;;;;;13.13;3.50;;;;;;;17.00;nan;102228.56;4902076;29;20457;-83
2022/01/15 16:32:11;;;;;;;9.03;2.70;;;;;;;16.97;nan;102231.72;4902649;29;20465;-83
2022/01/15 16:34:40;;;;;;;9.50;3.00;;;;;;;16.94;nan;102240.41;4900565;29;20480;-83
2022/01/15 16:37:08;;;;;;;14.13;3.30;;;;;;;16.91;nan;102238.91;4918767;29;20493;-82
2022/01/15 16:39:36;;;;;;;12.60;2.40;;;;;;;16.87;nan;102253.31;4919016;29;20453;-82
2022/01/15 16:42:04;;;;;;;11.37;2.57;;;;;;;16.83;nan;102263.03;4887145;29;20453;-85
2022/01/15 16:44:32;;;;;;;7.20;2.90;;;;;;;16.72;nan;102250.63;4882772;29;20458;-85
2022/01/15 16:47:02;;;;;;;9.27;3.10;;;;;;;16.59;nan;102251.31;4877599;29;20448;-84
2022/01/15 16:49:33;;;;;;;12.10;3.80;;;;;;;16.57;nan;102258.94;4887997;29;20530;-84
2022/01/15 16:52:04;;;;;;;10.80;2.70;;;;;;;16.47;nan;102252.88;4918408;29;20464;-83
2022/01/15 16:54:34;;;;;;;8.17;2.73;;;;;;;16.35;nan;102254.47;4876000;29;20521;-83
2022/01/15 16:57:03;;;;;;;8.23;2.90;;;;;;;16.18;nan;102252.97;4868613;29;21072;-82
2022/01/15 16:59:32;;;;;;;15.90;4.13;;;;;;;16.06;nan;102262.78;4883098;29;20454;-84
2022/01/15 17:02:00;;;;;;;10.17;3.00;;;;;;;15.84;nan;102246.19;4872279;29;20450;-84
2022/01/15 17:04:29;;;;;;;12.87;3.50;;;;;;;15.73;nan;102245.81;4867274;29;20450;-84
2022/01/15 17:06:56;;;;;;;11.53;2.90;;;;;;;15.65;nan;102263.28;4898455;29;21198;-84
2022/01/15 17:09:24;;;;;;;8.87;3.00;;;;;;;15.53;nan;102257.38;4892756;29;20465;-83
2022/01/15 17:11:52;;;;;;;28.67;3.97;;;;;;;15.46;nan;102252.81;4883633;29;20545;-83
2022/01/15 17:14:21;;;;;;;9.53;3.33;;;;;;;15.39;nan;102258.25;4876869;29;20462;-83
2022/01/15 17:16:51;;;;;;;9.37;3.30;;;;;;;15.21;nan;102241.19;4897999;29;20466;-83
2022/01/15 17:19:20;;;;;;;9.33;3.20;;;;;;;15.16;nan;102247.28;4882546;29;20498;-83
2022/01/15 17:21:48;;;;;;;12.87;3.07;;;;;;;15.12;nan;102254.19;4882283;29;20541;-83
2022/01/15 17:24:18;;;;;;;13.33;3.30;;;;;;;15.08;nan;102255.59;4887670;29;20454;-84
2022/01/15 17:26:46;;;;;;;10.17;3.17;;;;;;;15.03;nan;102257.19;4901165;29;20460;-83
2022/01/15 17:29:14;;;;;;;14.63;3.73;;;;;;;14.94;nan;102259.19;4901086;29;20472;-82
2022/01/15 17:31:43;;;;;;;5.67;3.00;;;;;;;14.87;nan;102258.19;4880591;29;20489;-82
2022/01/15 17:34:11;;;;;;;8.50;3.03;;;;;;;14.81;nan;102257.06;4878953;29;20455;-83
2022/01/15 17:36:40;;;;;;;8.80;2.90;;;;;;;14.73;nan;102250.75;4859926;29;20471;-83
2022/01/15 17:39:08;;;;;;;13.43;3.60;;;;;;;14.66;nan;102255.28;4865632;29;20478;-83
2022/01/15 17:41:36;;;;;;;11.20;3.57;;;;;;;14.52;nan;102241.28;4849859;29;20955;-82
2022/01/15 17:44:04;;;;;;;11.20;2.97;;;;;;;14.54;nan;102254.00;4871813;29;20463;-82
2022/01/15 17:46:33;;;;;;;13.30;4.40;;;;;;;14.49;nan;102260.91;4879004;29;20466;-82
2022/01/15 17:49:03;;;;;;;26.83;11.73;;;;;;;14.38;nan;102258.53;4889932;29;20443;-82
2022/01/15 17:51:34;;;;;;;36.73;12.17;;;;;;;14.36;nan;102266.13;4862628;29;20463;-83
2022/01/15 17:54:03;;;;;;;20.67;8.80;;;;;;;14.29;nan;102270.63;4860150;29;20475;-83
2022/01/15 17:56:34;;;;;;;21.17;5.53;;;;;;;14.24;nan;102272.22;4860430;29;20455;-83
2022/01/15 17:59:03;;;;;;;11.63;4.53;;;;;;;14.19;nan;102275.50;4861799;29;20495;-82
2022/01/15 18:01:31;;;;;;;11.50;4.60;;;;;;;14.11;nan;102270.03;4859739;29;20460;-83
2022/01/15 18:03:59;;;;;;;16.63;5.50;;;;;;;14.09;nan;102278.47;4860135;29;20459;-83
2022/01/15 18:06:26;;;;;;;13.13;5.87;;;;;;;14.00;nan;102276.81;4858077;29;20467;-82
2022/01/15 18:08:55;;;;;;;17.40;7.80;;;;;;;13.98;nan;102275.25;4844937;29;20448;-82
2022/01/15 18:11:23;;;;;;;17.80;7.17;;;;;;;13.86;nan;102277.53;4844472;29;20479;-83
2022/01/15 18:13:53;;;;;;;13.03;6.40;;;;;;;13.74;nan;102292.69;4859847;29;20463;-83
2022/01/15 18:16:21;;;;;;;18.50;5.97;;;;;;;13.61;nan;102287.75;4829898;29;20463;-83
2022/01/15 18:18:49;;;;;;;18.73;6.20;;;;;;;13.55;nan;102298.59;4864816;29;20884;-82
2022/01/15 18:21:17;;;;;;;8.60;3.50;;;;;;;13.41;nan;102290.03;4880001;29;21009;-83
2022/01/15 18:23:46;;;;;;;10.97;4.33;;;;;;;13.33;nan;102290.03;4878634;29;20831;-83
2022/01/15 18:26:17;;;;;;;15.47;4.00;;;;;;;13.25;nan;102286.47;4847589;29;20451;-83
2022/01/15 18:28:46;;;;;;;9.50;4.03;;;;;;;13.10;nan;102283.50;4877634;29;20451;-83
2022/01/15 18:31:14;;;;;;;16.00;4.13;;;;;;;13.11;nan;102296.22;4877581;29;20487;-82
2022/01/15 18:33:48;;;;;;;12.87;5.13;;;;;;;13.01;nan;102296.41;4847896;29;20463;-82
2022/01/15 18:36:16;;;;;;;20.70;5.90;;;;;;;12.95;nan;102297.06;4875875;29;20985;-82
2022/01/15 18:38:47;;;;;;;18.80;7.40;;;;;;;12.92;nan;102297.41;4850032;29;20494;-83
2022/01/15 18:41:14;;;;;;;19.17;10.70;;;;;;;12.84;nan;102294.69;4859339;29;21082;-83
2022/01/15 18:43:42;;;;;;;12.97;5.93;;;;;;;12.81;nan;102300.50;4860064;29;20463;-83
2022/01/15 18:46:10;;;;;;;15.50;8.17;;;;;;;12.76;nan;102300.16;4873189;29;20524;-82
2022/01/15 18:48:38;;;;;;;18.67;8.90;;;;;;;12.72;nan;102307.00;4860895;29;20814;-82
2022/01/15 18:51:06;;;;;;;11.30;6.23;;;;;;;12.68;nan;102312.00;4860649;29;20974;-82
2022/01/15 18:53:34;;;;;;;23.53;9.80;;;;;;;12.63;nan;102316.25;4875400;29;20822;-82
2022/01/15 18:56:02;;;;;;;21.37;6.20;;;;;;;12.59;nan;102314.88;4844327;29;20447;-82
2022/01/15 18:58:30;;;;;;;11.20;5.90;;;;;;;12.50;nan;102305.78;4859745;29;20518;-83
2022/01/15 19:00:59;;;;;;;14.73;8.40;;;;;;;12.47;nan;102313.50;4859196;29;20456;-82
2022/01/15 19:03:27;;;;;;;14.70;7.10;;;;;;;12.43;nan;102312.97;4829643;29;20487;-83
2022/01/15 19:05:55;;;;;;;12.27;6.87;;;;;;;12.39;nan;102315.16;4844816;29;20488;-82
2022/01/15 19:08:23;;;;;;;15.40;5.40;;;;;;;12.33;nan;102317.72;4874913;29;20448;-83
2022/01/15 19:10:51;;;;;;;21.53;5.07;;;;;;;12.29;nan;102324.56;4852880;29;20452;-83
2022/01/15 19:13:19;;;;;;;11.00;5.00;;;;;;;12.24;nan;102329.69;4862334;29;20483;-87
2022/01/15 19:15:47;;;;;;;15.20;4.83;;;;;;;12.10;nan;102322.97;4849373;29;20459;-89
2022/01/15 19:18:17;;;;;;;9.70;4.57;;;;;;;12.15;nan;102341.63;4860697;29;20551;-85
2022/01/15 19:20:46;;;;;;;8.70;4.33;;;;;;;12.05;nan;102336.31;4861064;29;20456;-86
2022/01/15 19:23:13;;;;;;;14.63;5.27;;;;;;;11.98;nan;102330.59;4881683;29;20463;-86
2022/01/15 19:25:41;;;;;;;20.37;8.60;;;;;;;11.96;nan;102331.78;4858428;29;20460;-88
2022/01/15 19:28:10;;;;;;;15.90;6.80;;;;;;;11.90;nan;102332.47;4878392;29;20443;-87
2022/01/15 19:30:42;;;;;;;11.60;6.17;;;;;;;11.88;nan;102339.97;4890647;29;20466;-88
2022/01/15 19:33:13;;;;;;;14.87;6.90;;;;;;;11.80;nan;102331.72;4898005;29;20461;-88
2022/01/15 19:35:42;;;;;;;11.70;5.90;;;;;;;11.80;nan;102342.66;4897993;29;20812;-88
2022/01/15 19:38:12;;;;;;;12.50;5.90;;;;;;;11.75;nan;102345.84;4900106;29;21013;-88
2022/01/15 19:40:42;;;;;;;20.70;7.33;;;;;;;11.66;nan;102358.66;4884993;29;20832;-88
2022/01/15 19:43:22;;;;;;;23.63;10.47;;;;;;;11.58;nan;102366.81;4894917;29;20462;-88
2022/01/15 19:45:56;;;;;;;23.23;8.90;;;;;;;11.58;nan;102366.81;4896775;29;20527;-87
2022/01/15 19:48:26;;;;;;;20.90;8.43;;;;;;;11.45;nan;102355.44;4870314;29;20478;-88
2022/01/15 19:50:54;;;;;;;18.30;8.97;;;;;;;11.50;nan;102360.44;4872895;29;20450;-87
2022/01/15 19:53:24;;;;;;;16.73;7.90;;;;;;;11.46;nan;102350.81;4881344;29;20506;-87
2022/01/15 19:55:59;;;;;;;17.50;7.03;;;;;;;11.37;nan;102358.94;4899293;29;20450;-88
2022/01/15 19:58:33;;;;;;;15.83;7.07;;;;;;;11.38;nan;102337.91;4901126;29;20492;-87
2022/01/15 20:01:02;;;;;;;16.20;7.47;;;;;;;11.36;nan;102337.22;4884892;29;20446;-88
2022/01/15 20:03:30;;;;;;;11.03;7.57;;;;;;;11.36;nan;102335.31;4899619;29;20453;-87
2022/01/15 20:05:59;;;;;;;15.13;9.10;;;;;;;11.26;nan;102334.59;4865478;29;21001;-87
2022/01/15 20:08:33;;;;;;;19.27;11.17;;;;;;;11.30;nan;102348.81;4866376;29;20451;-88
2022/01/15 20:11:02;;;;;;;19.10;9.00;;;;;;;11.19;nan;102321.69;4881032;29;20461;-87
2022/01/15 20:13:31;;;;;;;21.60;9.20;;;;;;;11.17;nan;102353.81;4876368;29;20465;-87
2022/01/15 20:16:01;;;;;;;18.10;8.17;;;;;;;11.14;nan;102362.38;4881028;29;20463;-87
2022/01/15 20:18:29;;;;;;;16.40;9.00;;;;;;;11.14;nan;102378.78;4866002;29;20486;-88
2022/01/15 20:20:58;;;;;;;14.60;7.60;;;;;;;11.11;nan;102401.00;4866326;29;20458;-87
2022/01/15 20:23:36;;;;;;;20.13;9.00;;;;;;;11.08;nan;102402.16;4881195;29;20470;-88
2022/01/15 20:26:13;;;;;;;25.03;13.90;;;;;;;11.02;nan;102381.75;4880272;29;20466;-87
2022/01/15 20:28:45;;;;;;;24.77;12.30;;;;;;;10.97;nan;102392.28;4882015;29;20447;-88
2022/01/15 20:31:15;;;;;;;21.73;8.63;;;;;;;10.90;nan;102361.13;4863728;29;20519;-87
2022/01/15 20:33:44;;;;;;;17.90;8.50;;;;;;;10.90;nan;102347.44;4880451;29;20455;-88
2022/01/15 20:36:12;;;;;;;15.27;7.70;;;;;;;10.88;nan;102346.75;4880210;29;20455;-88
2022/01/15 20:38:41;;;;;;;15.80;7.40;;;;;;;10.88;nan;102345.88;4850304;29;20479;-88
2022/01/15 20:41:09;;;;;;;18.20;9.50;;;;;;;10.86;nan;102340.56;4864345;29;20463;-88
2022/01/15 20:43:39;;;;;;;17.70;9.23;;;;;;;10.80;nan;102324.78;4881177;29;20455;-87
2022/01/15 20:46:10;;;;;;;20.83;10.30;;;;;;;10.81;nan;102304.63;4877149;29;20468;-87
2022/01/15 20:48:47;;;;;;;22.03;12.73;;;;;;;10.81;nan;102307.34;4847449;29;20455;-88
2022/01/15 20:51:31;;;;;;;32.17;11.73;;;;;;;10.82;nan;102320.00;4821134;29;20498;-88
2022/01/15 20:54:23;;;;;;;22.67;12.50;;;;;;;10.84;nan;102322.59;4862042;29;20456;-88
2022/01/15 20:57:15;;;;;;;17.13;11.10;;;;;;;10.80;nan;102343.91;4861922;29;20452;-88
2022/01/15 21:00:12;;;;;;;25.70;11.13;;;;;;;10.77;nan;102337.94;4861225;29;20494;-89
2022/01/15 21:02:52;;;;;;;19.53;9.47;;;;;;;10.69;nan;102350.50;4881506;29;20455;-89
2022/01/15 21:05:43;;;;;;;29.73;10.00;;;;;;;10.66;nan;102339.84;4866212;29;20453;-88
2022/01/15 21:08:31;;;;;;;24.30;12.10;;;;;;;10.67;nan;102355.25;4866646;29;20458;-89
2022/01/15 21:11:19;;;;;;;20.30;10.33;;;;;;;10.67;nan;102333.38;4864970;29;20459;-88
2022/01/15 21:14:06;;;;;;;16.33;9.70;;;;;;;10.64;nan;102338.28;4864411;29;20466;-89
2022/01/15 21:16:35;;;;;;;22.33;12.70;;;;;;;10.65;nan;102342.75;4847064;29;20463;-89
2022/01/15 21:19:05;;;;;;;22.23;12.00;;;;;;;10.57;nan;102343.53;4859258;29;20491;-89
2022/01/15 21:21:34;;;;;;;18.10;10.27;;;;;;;10.54;nan;102346.56;4852027;29;20458;-89
2022/01/15 21:24:02;;;;;;;19.50;11.07;;;;;;;10.54;nan;102351.19;4865119;29;20454;-88
2022/01/15 21:27:00;;;;;;;21.40;10.40;;;;;;;10.54;nan;102368.44;4861266;29;20452;-89
2022/01/15 21:29:32;;;;;;;24.67;9.63;;;;;;;10.54;nan;102373.91;4861757;29;20458;-89
2022/01/15 21:32:05;;;;;;;21.53;10.70;;;;;;;10.47;nan;102380.13;4865858;29;20461;-89
2022/01/15 21:34:38;;;;;;;21.17;10.00;;;;;;;10.43;nan;102386.91;4860313;29;20450;-89
2022/01/15 21:37:17;;;;;;;35.13;12.57;;;;;;;10.41;nan;102380.72;4865078;29;20465;-89
2022/01/15 21:40:07;;;;;;;33.73;17.13;;;;;;;10.42;nan;102388.78;4881031;29;20486;-89
2022/01/15 21:42:42;;;;;;;44.87;18.20;;;;;;;10.40;nan;102390.81;4889163;29;20457;-89
2022/01/15 21:45:12;;;;;;;35.10;17.77;;;;;;;10.34;nan;102389.56;4866692;29;20517;-89
2022/01/15 21:47:51;;;;;;;50.73;17.73;;;;;;;10.33;nan;102404.25;4897962;29;20822;-89
2022/01/15 21:50:26;;;;;;;33.20;15.83;;;;;;;10.27;nan;102412.16;4897047;29;20458;-89
2022/01/15 21:52:54;;;;;;;29.70;12.97;;;;;;;10.27;nan;102402.09;4883254;29;20852;-89
2022/01/15 21:55:36;;;;;;;19.43;10.37;;;;;;;10.30;nan;102411.88;4867318;29;20976;-89
2022/01/15 21:58:04;;;;;;;21.83;9.90;;;;;;;10.24;nan;102407.88;4897919;29;20462;-91
2022/01/15 22:00:32;;;;;;;19.63;9.80;;;;;;;10.22;nan;102398.09;4897647;29;20465;-91
2022/01/15 22:03:03;;;;;;;17.63;9.70;;;;;;;10.12;nan;102392.66;4874794;29;20443;-90
2022/01/15 22:05:35;;;;;;;20.00;8.47;;;;;;;10.12;nan;102402.72;4867991;29;20454;-91
2022/01/15 22:08:20;;;;;;;16.40;9.47;;;;;;;10.18;nan;102421.25;4898024;29;21014;-90
2022/01/15 22:10:49;;;;;;;21.03;10.37;;;;;;;10.15;nan;102411.47;4867082;29;20454;-90
2022/01/15 22:13:26;;;;;;;17.83;9.30;;;;;;;10.13;nan;102421.69;4866372;29;20510;-90
2022/01/15 22:15:56;;;;;;;18.53;8.80;;;;;;;10.08;nan;102431.34;4879041;29;20514;-89
2022/01/15 22:18:25;;;;;;;15.13;8.33;;;;;;;10.01;nan;102411.94;4894058;29;20482;-90
2022/01/15 22:20:54;;;;;;;21.00;10.30;;;;;;;9.87;nan;102376.94;4887747;29;20818;-89
2022/01/15 22:23:42;;;;;;;19.67;10.17;;;;;;;9.96;nan;102419.75;4876848;29;20448;-90
2022/01/15 22:26:26;;;;;;;23.47;9.93;;;;;;;9.91;nan;102446.63;4871648;29;20457;-89
2022/01/15 22:29:00;;;;;;;14.50;9.33;;;;;;;9.87;nan;102437.00;4864144;29;20455;-88
2022/01/15 22:31:28;;;;;;;18.50;9.73;;;;;;;9.82;nan;102445.63;4862637;29;20542;-89
2022/01/15 22:34:07;;;;;;;34.73;16.10;;;;;;;9.94;nan;102468.19;4831739;29;20459;-90
2022/01/15 22:36:38;;;;;;;40.47;21.63;;;;;;;9.87;nan;102453.41;4865160;29;20457;-88
2022/01/15 22:39:07;;;;;;;61.07;30.60;;;;;;;9.87;nan;102465.19;4876961;29;20484;-89
2022/01/15 22:41:35;;;;;;;33.20;16.33;;;;;;;9.85;nan;102453.53;4869401;29;20458;-90
2022/01/15 22:44:05;;;;;;;23.40;10.10;;;;;;;9.87;nan;102459.72;4859746;29;20466;-89
2022/01/15 22:46:34;;;;;;;17.80;9.97;;;;;;;9.86;nan;102446.22;4848880;29;20458;-88
2022/01/15 22:49:19;;;;;;;16.40;9.20;;;;;;;9.86;nan;102446.22;4850212;29;20454;-95
2022/01/15 22:52:13;;;;;;;20.50;8.50;;;;;;;9.85;nan;102417.19;4865533;29;20466;-96
2022/01/15 22:54:57;;;;;;;17.03;8.90;;;;;;;9.68;nan;102389.63;4871110;29;20460;-94
2022/01/15 23:02:01;;;;;;;21.00;7.83;;;;;;;9.65;nan;102417.22;4863067;29;20472;-94
2022/01/15 23:05:12;;;;;;;20.07;8.37;;;;;;;9.68;nan;102443.38;4861223;29;20470;-92
2022/01/15 23:07:50;;;;;;;30.13;11.80;;;;;;;9.57;nan;102438.94;4880464;29;20458;-94
2022/01/15 23:10:35;;;;;;;19.20;10.20;;;;;;;9.72;nan;102495.81;4881121;29;20455;-95
2022/01/15 23:13:07;;;;;;;18.07;9.07;;;;;;;9.67;nan;102479.88;4865154;29;20451;-93
2022/01/15 23:19:17;;;;;;;25.70;10.37;;;;;;;9.52;nan;102427.59;4881180;29;20868;-92
2022/01/15 23:21:55;;;;;;;18.47;8.60;;;;;;;9.59;nan;102427.88;4864005;29;20463;-91
2022/01/15 23:24:23;;;;;;;16.50;7.20;;;;;;;9.47;nan;102383.50;4864296;29;20466;-93
2022/01/15 23:26:57;;;;;;;18.50;9.00;;;;;;;9.44;nan;102370.16;4849059;29;20443;-94
2022/01/15 23:29:27;;;;;;;17.87;8.57;;;;;;;9.50;nan;102365.97;4833907;29;20812;-93
2022/01/15 23:32:00;;;;;;;21.70;9.80;;;;;;;9.46;nan;102384.50;4867167;29;21003;-94
2022/01/15 23:34:46;;;;;;;17.93;9.27;;;;;;;9.45;nan;102390.97;4868385;29;20461;-94
2022/01/15 23:37:59;;;;;;;19.43;9.20;;;;;;;9.44;nan;102372.88;4883336;29;20465;-94
2022/01/15 23:40:59;;;;;;;17.23;8.73;;;;;;;9.43;nan;102406.63;4898979;29;20494;-95
2022/01/15 23:43:33;;;;;;;16.20;8.67;;;;;;;9.31;nan;102397.75;4882714;29;20469;-94
2022/01/15 23:48:56;;;;;;;24.37;10.80;;;;;;;9.37;nan;102390.00;4809063;29;20450;-96
2022/01/15 23:51:36;;;;;;;16.50;9.53;;;;;;;9.35;nan;102392.88;4809576;29;20518;-95
2022/01/15 23:54:19;;;;;;;15.13;9.03;;;;;;;9.30;nan;102362.41;4794768;29;20473;-95
2022/01/15 23:57:00;;;;;;;19.27;9.90;;;;;;;9.31;nan;102402.34;4793512;29;20952;-95
2022/01/15 23:59:59;;;;;;;22.10;10.23;;;;;;;9.32;nan;102518.66;4793620;29;20493;-92
